Time;durP1;ratioP1;P1;durP2;ratioP2;P2;SDS_P1;SDS_P2;PMS_P1;PMS_P2;Temp;Humidity;BMP_temperature;BMP_pressure;BME280_temperature;BME280_humidity;BME280_pressure;Samples;Min_cycle;Max_cycle;Signal;HPM_P1;HPM_P2
2021/12/07 00:01:32;;;;;;;24.37;12.13;;;1.60;99.90;;;;;;4975717;28;20055;-87
2021/12/07 00:03:59;;;;;;;23.93;12.73;;;1.60;99.90;;;;;;4958638;28;20054;-88
2021/12/07 00:06:25;;;;;;;23.47;11.80;;;1.60;99.90;;;;;;4976780;28;20038;-87
2021/12/07 00:08:54;;;;;;;22.83;12.60;;;1.50;99.90;;;;;;4962024;28;20058;-87
2021/12/07 00:11:24;;;;;;;24.70;12.70;;;1.40;99.90;;;;;;4960652;28;20396;-88
2021/12/07 00:13:50;;;;;;;27.17;13.23;;;1.40;99.90;;;;;;4977885;28;20401;-88
2021/12/07 00:16:15;;;;;;;26.47;13.57;;;1.20;99.90;;;;;;4959271;28;20043;-88
2021/12/07 00:18:41;;;;;;;26.17;13.33;;;1.20;99.90;;;;;;4958111;28;20061;-88
2021/12/07 00:21:08;;;;;;;27.23;13.07;;;1.20;99.90;;;;;;4975503;28;20050;-88
2021/12/07 00:23:35;;;;;;;27.13;13.43;;;1.20;99.90;;;;;;4957581;28;20042;-87
2021/12/07 00:26:01;;;;;;;28.37;12.90;;;1.10;99.90;;;;;;4958728;28;20051;-88
2021/12/07 00:28:26;;;;;;;26.07;13.30;;;1.10;99.90;;;;;;4958673;28;20051;-88
2021/12/07 00:30:54;;;;;;;26.40;13.63;;;1.00;99.90;;;;;;4957630;28;20058;-88
2021/12/07 00:35:50;;;;;;;28.93;13.23;;;0.90;99.90;;;;;;4957929;28;20053;-89
2021/12/07 00:38:19;;;;;;;28.03;13.13;;;0.80;99.90;;;;;;4958517;28;20054;-90
2021/12/07 00:40:45;;;;;;;28.67;13.33;;;0.80;99.90;;;;;;4957736;28;20046;-89
2021/12/07 00:43:12;;;;;;;28.57;13.50;;;0.70;99.90;;;;;;4957172;28;20113;-89
2021/12/07 00:45:39;;;;;;;32.73;15.33;;;0.60;99.90;;;;;;4957782;28;20042;-90
2021/12/07 00:48:06;;;;;;;30.50;13.57;;;0.60;99.90;;;;;;4957578;28;20074;-89
2021/12/07 00:50:34;;;;;;;28.33;13.47;;;0.50;99.90;;;;;;4957274;28;20042;-89
2021/12/07 00:53:02;;;;;;;33.70;13.20;;;0.50;99.90;;;;;;4957564;28;20070;-89
2021/12/07 00:55:32;;;;;;;34.00;14.43;;;0.50;99.90;;;;;;4975605;28;20086;-89
2021/12/07 00:58:00;;;;;;;32.17;14.60;;;0.40;99.90;;;;;;4956462;28;20039;-88
2021/12/07 01:00:28;;;;;;;36.27;14.70;;;0.40;99.90;;;;;;4957469;28;20053;-88
2021/12/07 01:02:54;;;;;;;36.10;15.07;;;0.40;99.90;;;;;;4957204;28;20051;-88
2021/12/07 01:05:28;;;;;;;41.07;16.13;;;0.50;99.90;;;;;;4957543;28;20043;-87
2021/12/07 01:24:41;;;;;;;36.90;15.70;;;0.20;99.90;;;;;;4916294;28;20043;-88
2021/12/07 01:27:07;;;;;;;39.90;15.53;;;0.30;99.90;;;;;;4956376;28;20043;-87
2021/12/07 01:29:35;;;;;;;36.80;14.90;;;0.20;99.90;;;;;;4957130;28;20130;-87
2021/12/07 01:32:13;;;;;;;45.03;17.20;;;1.40;99.90;;;;;;4957077;28;20526;-87
2021/12/07 01:40:57;;;;;;;42.05;15.90;;;0.20;99.90;;;;;;4895289;29;20053;-86
2021/12/07 01:46:08;;;;;;;49.37;16.50;;;0.20;99.90;;;;;;4952117;28;20391;-87
2021/12/07 01:59:33;;;;;;;49.60;16.33;;;0.20;99.90;;;;;;4977928;28;20129;-87
2021/12/07 02:01:59;;;;;;;40.67;16.27;;;0.20;99.90;;;;;;4959561;28;20105;-87
2021/12/07 02:04:25;;;;;;;50.13;16.37;;;0.10;99.90;;;;;;4964554;28;20056;-87
2021/12/07 02:06:51;;;;;;;47.20;16.70;;;0.40;99.90;;;;;;4960263;28;20041;-87
2021/12/07 02:09:16;;;;;;;50.37;17.17;;;0.10;99.90;;;;;;4959173;28;20519;-87
2021/12/07 02:11:49;;;;;;;42.50;16.13;;;0.80;99.90;;;;;;4959656;28;20050;-87
2021/12/07 02:14:16;;;;;;;45.97;16.50;;;0.10;99.90;;;;;;4959666;28;20054;-87
2021/12/07 02:16:48;;;;;;;45.63;15.50;;;1.20;99.90;;;;;;4959590;28;20160;-87
2021/12/07 02:19:15;;;;;;;41.90;15.57;;;0.10;99.90;;;;;;4976659;28;20085;-87
2021/12/07 02:21:41;;;;;;;44.83;16.30;;;0.20;99.90;;;;;;4960343;28;20502;-87
2021/12/07 02:24:07;;;;;;;53.73;16.23;;;0.10;99.90;;;;;;4959942;28;20118;-87
2021/12/07 02:26:33;;;;;;;41.63;16.40;;;0.10;99.90;;;;;;4959913;28;20106;-87
2021/12/07 02:28:59;;;;;;;48.30;15.87;;;0.10;99.90;;;;;;4958511;28;20065;-86
2021/12/07 02:31:25;;;;;;;41.83;15.67;;;1.00;99.90;;;;;;4959921;28;20074;-87
2021/12/07 02:33:51;;;;;;;42.83;15.80;;;0.10;99.90;;;;;;4960541;28;20503;-86
2021/12/07 02:36:17;;;;;;;50.23;16.23;;;0.10;99.90;;;;;;4975298;28;20074;-87
2021/12/07 02:38:43;;;;;;;40.53;14.97;;;0.10;99.90;;;;;;4983288;28;20038;-87
2021/12/07 02:41:09;;;;;;;48.37;16.20;;;0.10;99.90;;;;;;4985060;28;20573;-87
2021/12/07 02:43:35;;;;;;;46.80;15.90;;;1.30;99.90;;;;;;4964615;28;20527;-87
2021/12/07 02:46:01;;;;;;;43.27;15.83;;;0.10;99.90;;;;;;4959729;28;20055;-87
2021/12/07 02:48:27;;;;;;;40.50;15.47;;;0.10;99.90;;;;;;4977127;28;20066;-87
2021/12/07 02:50:53;;;;;;;52.83;16.67;;;1.00;99.90;;;;;;4958583;28;20046;-87
2021/12/07 02:53:22;;;;;;;38.80;15.47;;;1.10;99.90;;;;;;4977166;28;20439;-87
2021/12/07 02:55:52;;;;;;;42.70;16.33;;;1.10;99.90;;;;;;4976935;28;20069;-87
2021/12/07 02:58:18;;;;;;;42.57;15.33;;;0.60;99.90;;;;;;4958530;28;20491;-87
2021/12/07 03:00:54;;;;;;;44.63;14.77;;;0.50;99.90;;;;;;4959304;28;20085;-87
2021/12/07 03:03:20;;;;;;;37.50;14.83;;;0.20;99.90;;;;;;4959113;28;20050;-87
2021/12/07 03:05:57;;;;;;;42.67;16.30;;;1.20;99.90;;;;;;4956629;28;20430;-87
2021/12/07 03:27:20;;;;;;;41.90;16.10;;;0.20;99.90;;;;;;4958275;28;20054;-87
2021/12/07 03:29:46;;;;;;;42.17;16.50;;;1.30;99.90;;;;;;4975206;28;20392;-87
2021/12/07 03:32:12;;;;;;;36.00;16.03;;;0.20;99.90;;;;;;4957457;28;20076;-87
2021/12/07 03:34:38;;;;;;;38.60;16.60;;;0.30;99.90;;;;;;4958285;28;20129;-87
2021/12/07 03:37:04;;;;;;;41.10;16.83;;;0.30;99.90;;;;;;4957735;28;20091;-87
2021/12/07 03:39:29;;;;;;;43.97;18.13;;;1.00;99.90;;;;;;4974739;28;20043;-87
2021/12/07 03:41:55;;;;;;;44.03;17.13;;;0.30;99.90;;;;;;4958254;28;20050;-87
2021/12/07 03:44:20;;;;;;;41.73;17.33;;;0.70;99.90;;;;;;4958059;28;20043;-87
2021/12/07 03:46:46;;;;;;;46.67;18.30;;;0.30;99.90;;;;;;4956970;28;20049;-87
2021/12/07 03:49:12;;;;;;;42.73;16.80;;;0.30;99.90;;;;;;4963257;28;20082;-87
2021/12/07 03:51:37;;;;;;;43.87;18.13;;;0.30;99.90;;;;;;4958310;28;20035;-87
2021/12/07 03:54:04;;;;;;;46.93;18.37;;;1.10;99.90;;;;;;4956910;28;20134;-87
2021/12/07 03:56:30;;;;;;;42.30;18.47;;;0.40;99.90;;;;;;4960002;28;20517;-87
2021/12/07 03:58:55;;;;;;;41.57;17.37;;;0.40;99.90;;;;;;4977331;28;20050;-87
2021/12/07 04:01:23;;;;;;;44.27;18.13;;;1.30;99.90;;;;;;4957544;28;20546;-88
2021/12/07 04:03:52;;;;;;;52.77;19.27;;;0.40;99.90;;;;;;4957223;28;20056;-87
2021/12/07 04:06:18;;;;;;;41.70;18.40;;;1.60;99.90;;;;;;4956737;28;20097;-88
2021/12/07 04:08:45;;;;;;;51.03;19.53;;;0.40;99.90;;;;;;4956613;28;20495;-87
2021/12/07 04:11:11;;;;;;;49.80;19.00;;;0.40;99.90;;;;;;4957482;28;20046;-87
2021/12/07 04:13:37;;;;;;;50.97;19.80;;;1.00;99.90;;;;;;4957760;28;20046;-87
2021/12/07 04:16:07;;;;;;;53.40;19.30;;;0.70;99.90;;;;;;4956394;28;20070;-87
2021/12/07 04:18:33;;;;;;;45.77;18.73;;;0.40;99.90;;;;;;4957273;28;20129;-87
2021/12/07 04:21:02;;;;;;;46.27;18.10;;;0.40;99.90;;;;;;4973631;28;20499;-87
2021/12/07 04:23:29;;;;;;;50.13;19.00;;;0.50;99.90;;;;;;4957978;28;20050;-87
2021/12/07 04:25:55;;;;;;;51.03;18.83;;;1.10;99.90;;;;;;4957470;28;20051;-87
2021/12/07 04:28:20;;;;;;;47.97;19.23;;;0.30;99.90;;;;;;4957019;28;20057;-87
2021/12/07 04:30:46;;;;;;;44.20;18.33;;;1.10;99.90;;;;;;4957204;28;20142;-87
2021/12/07 04:33:13;;;;;;;50.87;19.40;;;0.20;99.90;;;;;;4957802;28;20050;-88
2021/12/07 04:35:42;;;;;;;62.23;19.30;;;1.30;99.90;;;;;;4956693;28;20051;-88
2021/12/07 04:38:08;;;;;;;49.57;18.47;;;0.30;99.90;;;;;;4957548;28;20078;-88
2021/12/07 04:40:34;;;;;;;52.93;19.40;;;0.20;99.90;;;;;;4957517;28;20077;-88
2021/12/07 04:43:01;;;;;;;47.13;18.50;;;0.60;99.90;;;;;;4956567;28;20049;-88
2021/12/07 04:58:34;;;;;;;60.30;19.73;;;0.20;99.90;;;;;;4957471;28;20491;-87
2021/12/07 05:01:00;;;;;;;58.80;19.80;;;1.30;99.90;;;;;;4962907;28;20061;-88
2021/12/07 05:03:28;;;;;;;56.47;19.30;;;0.80;99.90;;;;;;4993744;28;20043;-88
2021/12/07 05:05:54;;;;;;;48.70;19.43;;;0.00;99.90;;;;;;4974663;28;20101;-88
2021/12/07 05:08:41;;;;;;;55.50;19.07;;;1.00;99.90;;;;;;4976307;28;20054;-88
2021/12/07 05:14:25;;;;;;;61.10;19.87;;;0.40;99.90;;;;;;4977074;28;20050;-88
2021/12/07 05:24:23;;;;;;;54.45;19.55;;;1.00;99.90;;;;;;4980482;28;20513;-87
2021/12/07 05:37:59;;;;;;;47.60;18.37;;;0.00;99.90;;;;;;4981965;28;20050;-88
2021/12/07 05:40:26;;;;;;;49.77;18.47;;;0.00;99.90;;;;;;5004704;28;20046;-87
2021/12/07 05:42:53;;;;;;;59.87;19.27;;;0.00;99.90;;;;;;5001265;28;20495;-88
2021/12/07 05:45:22;;;;;;;57.33;18.73;;;0.10;99.90;;;;;;4994972;28;20065;-89
2021/12/07 05:47:49;;;;;;;52.70;18.17;;;0.20;99.90;;;;;;4982118;28;20050;-88
2021/12/07 05:50:19;;;;;;;54.73;18.77;;;0.00;99.90;;;;;;4981778;28;20054;-88
2021/12/07 05:52:45;;;;;;;53.07;19.40;;;0.00;99.90;;;;;;4988191;28;20050;-87
2021/12/07 05:55:11;;;;;;;60.43;20.77;;;0.10;99.90;;;;;;4984060;28;20537;-87
2021/12/07 05:57:36;;;;;;;56.77;17.87;;;-0.10;99.90;;;;;;4999306;28;20469;-88
2021/12/07 06:00:07;;;;;;;52.50;18.50;;;-0.10;99.90;;;;;;4981956;28;20074;-88
2021/12/07 06:02:32;;;;;;;64.03;19.73;;;-0.10;99.90;;;;;;4981594;28;20046;-88
2021/12/07 06:04:58;;;;;;;52.23;17.07;;;-0.10;99.90;;;;;;4998842;28;20050;-87
2021/12/07 06:07:23;;;;;;;54.63;17.77;;;-0.10;99.90;;;;;;4980189;28;20038;-88
2021/12/07 06:09:49;;;;;;;47.37;16.83;;;-0.20;99.90;;;;;;4980454;28;20108;-87
2021/12/07 06:12:15;;;;;;;49.27;16.87;;;0.60;99.90;;;;;;4980036;28;20042;-88
2021/12/07 06:14:43;;;;;;;47.47;17.43;;;1.00;99.90;;;;;;4977919;28;20054;-87
2021/12/07 06:17:10;;;;;;;48.70;17.10;;;0.00;99.90;;;;;;4979856;28;20056;-88
2021/12/07 06:19:35;;;;;;;46.30;17.33;;;-0.10;99.90;;;;;;4980392;28;20054;-87
2021/12/07 06:22:01;;;;;;;44.13;16.13;;;-0.10;99.90;;;;;;4978992;28;20050;-88
2021/12/07 06:24:27;;;;;;;47.13;16.67;;;0.90;99.90;;;;;;4997359;28;20049;-88
2021/12/07 06:26:52;;;;;;;48.27;16.67;;;0.00;99.90;;;;;;4979455;28;20057;-88
2021/12/07 06:29:18;;;;;;;53.50;18.37;;;0.00;99.90;;;;;;4995446;28;20058;-88
2021/12/07 06:31:44;;;;;;;44.50;16.40;;;0.00;99.90;;;;;;4978898;28;20521;-87
2021/12/07 06:34:10;;;;;;;48.10;17.70;;;0.10;99.90;;;;;;4997470;28;20475;-87
2021/12/07 06:36:39;;;;;;;47.13;16.27;;;0.10;99.90;;;;;;4978863;28;20161;-87
2021/12/07 06:39:10;;;;;;;51.77;17.43;;;1.20;99.90;;;;;;4978596;28;20050;-87
2021/12/07 06:41:35;;;;;;;47.73;18.07;;;0.60;99.90;;;;;;4978428;28;20487;-87
2021/12/07 06:44:02;;;;;;;50.83;18.50;;;1.10;99.90;;;;;;4979223;28;20108;-87
2021/12/07 06:46:27;;;;;;;57.13;20.17;;;0.30;99.90;;;;;;4979859;28;20046;-87
2021/12/07 06:48:53;;;;;;;59.10;19.93;;;0.30;99.90;;;;;;4978534;28;20154;-87
2021/12/07 06:51:22;;;;;;;53.30;18.53;;;0.30;99.90;;;;;;4979680;28;20046;-87
2021/12/07 06:53:48;;;;;;;50.80;20.00;;;0.20;99.90;;;;;;4979424;28;20397;-87
2021/12/07 06:56:13;;;;;;;56.13;19.53;;;1.10;99.90;;;;;;4978666;28;20046;-87
2021/12/07 06:58:39;;;;;;;52.60;21.80;;;0.40;99.90;;;;;;4979450;28;20433;-88
2021/12/07 07:01:07;;;;;;;74.97;38.43;;;0.40;99.90;;;;;;4978759;28;20579;-88
2021/12/07 07:03:36;;;;;;;49.40;20.33;;;0.30;99.90;;;;;;4995000;28;20129;-87
2021/12/07 07:06:03;;;;;;;57.27;21.90;;;1.60;99.90;;;;;;4978088;28;20080;-86
2021/12/07 07:08:29;;;;;;;63.77;21.53;;;1.10;99.90;;;;;;4978123;28;20057;-87
2021/12/07 07:10:55;;;;;;;54.10;19.03;;;0.30;99.90;;;;;;4979096;28;20129;-95
2021/12/07 07:13:20;;;;;;;56.80;19.43;;;0.30;99.90;;;;;;4978744;28;20133;-87
2021/12/07 07:15:46;;;;;;;49.07;17.17;;;0.40;99.90;;;;;;4978138;28;20391;-88
2021/12/07 07:18:12;;;;;;;46.87;16.47;;;0.10;99.90;;;;;;4978332;28;20058;-87
2021/12/07 07:20:37;;;;;;;45.80;18.13;;;0.10;99.90;;;;;;4978234;28;20049;-86
2021/12/07 07:23:04;;;;;;;50.47;17.03;;;-0.20;99.90;;;;;;4977576;28;20049;-87
2021/12/07 07:25:29;;;;;;;49.40;17.53;;;-0.10;99.90;;;;;;4977033;28;20053;-87
2021/12/07 07:27:55;;;;;;;46.63;17.03;;;0.00;99.90;;;;;;4978483;28;20407;-87
2021/12/07 07:30:21;;;;;;;42.00;16.57;;;-0.20;99.90;;;;;;4974854;28;20058;-87
2021/12/07 07:32:47;;;;;;;47.20;17.20;;;-0.20;99.90;;;;;;4973411;28;20567;-92
2021/12/07 07:35:16;;;;;;;62.43;18.13;;;-0.20;99.90;;;;;;4975281;28;20550;-86
2021/12/07 07:37:42;;;;;;;61.60;26.57;;;0.80;99.90;;;;;;4977829;28;20061;-88
2021/12/07 07:40:12;;;;;;;50.20;19.67;;;-0.10;99.90;;;;;;4962402;28;20430;-89
2021/12/07 07:42:37;;;;;;;47.00;17.37;;;0.10;99.90;;;;;;4955132;29;20043;-89
2021/12/07 07:45:04;;;;;;;45.00;16.83;;;0.00;99.90;;;;;;4954011;29;20051;-85
2021/12/07 07:47:30;;;;;;;53.57;18.10;;;0.20;99.90;;;;;;4959166;29;20083;-87
2021/12/07 07:49:55;;;;;;;50.53;18.60;;;0.10;99.90;;;;;;4954780;29;20467;-88
2021/12/07 07:52:21;;;;;;;44.40;17.03;;;-0.10;99.90;;;;;;4953943;29;20051;-87
2021/12/07 07:54:47;;;;;;;47.50;16.47;;;0.00;99.90;;;;;;4954596;29;20060;-87
2021/12/07 07:57:13;;;;;;;40.10;15.60;;;0.00;99.90;;;;;;4954630;29;20047;-87
2021/12/07 07:59:39;;;;;;;42.03;14.80;;;0.00;99.90;;;;;;4954162;29;20407;-88
2021/12/07 08:02:06;;;;;;;48.23;17.57;;;0.90;99.90;;;;;;4954532;29;20162;-87
2021/12/07 08:04:31;;;;;;;41.57;15.67;;;0.10;99.90;;;;;;4954550;29;20122;-87
2021/12/07 08:06:57;;;;;;;40.27;15.60;;;0.10;99.90;;;;;;4953587;29;20082;-87
2021/12/07 08:09:23;;;;;;;53.43;16.83;;;0.10;99.90;;;;;;4954444;29;20480;-87
2021/12/07 08:11:49;;;;;;;41.23;15.60;;;1.20;99.90;;;;;;4955974;29;20055;-88
2021/12/07 08:14:17;;;;;;;56.33;16.93;;;0.60;99.90;;;;;;4954708;28;20121;-87
2021/12/07 08:16:43;;;;;;;42.33;15.27;;;0.30;99.90;;;;;;4954434;29;20061;-87
2021/12/07 08:19:09;;;;;;;48.47;16.47;;;0.20;99.90;;;;;;4954434;29;20043;-87
2021/12/07 08:21:34;;;;;;;46.20;16.43;;;0.40;99.90;;;;;;4954842;28;20440;-87
2021/12/07 08:24:00;;;;;;;43.73;15.10;;;0.50;99.90;;;;;;4953932;29;20571;-87
2021/12/07 08:26:26;;;;;;;45.17;15.13;;;0.30;99.90;;;;;;4954557;29;20082;-87
2021/12/07 08:28:54;;;;;;;49.63;16.47;;;0.20;99.90;;;;;;4959959;28;20529;-88
2021/12/07 08:31:20;;;;;;;47.37;16.07;;;0.20;99.90;;;;;;4994344;28;20046;-87
2021/12/07 08:33:46;;;;;;;48.50;15.60;;;0.20;99.90;;;;;;4976971;28;20053;-87
2021/12/07 08:36:12;;;;;;;44.33;15.07;;;0.30;99.90;;;;;;4971035;28;20046;-86
2021/12/07 08:38:38;;;;;;;46.63;15.33;;;0.20;99.90;;;;;;4967805;28;20492;-86
2021/12/07 08:41:04;;;;;;;41.50;15.13;;;0.10;99.90;;;;;;4982685;28;20077;-87
2021/12/07 08:43:32;;;;;;;44.17;15.20;;;0.20;99.90;;;;;;4985550;28;20062;-87
2021/12/07 08:46:01;;;;;;;43.57;15.43;;;0.20;99.90;;;;;;4963471;28;20058;-86
2021/12/07 08:48:30;;;;;;;43.33;15.40;;;0.30;99.90;;;;;;4966584;28;20411;-86
2021/12/07 08:50:57;;;;;;;45.90;15.17;;;0.40;99.90;;;;;;4962864;28;20531;-87
2021/12/07 08:53:24;;;;;;;44.37;15.37;;;0.20;99.90;;;;;;4967183;28;20046;-86
2021/12/07 09:01:24;;;;;;;40.90;15.43;;;0.30;99.90;;;;;;4975980;28;20748;-88
2021/12/07 09:03:52;;;;;;;44.27;16.10;;;0.40;99.90;;;;;;4975338;28;20046;-87
2021/12/07 09:06:17;;;;;;;46.20;16.13;;;0.50;99.90;;;;;;4976105;28;20038;-87
2021/12/07 09:08:44;;;;;;;44.80;15.50;;;0.50;99.90;;;;;;4993450;28;20053;-87
2021/12/07 09:11:11;;;;;;;40.63;15.83;;;0.70;99.90;;;;;;4975396;28;20509;-88
2021/12/07 09:13:39;;;;;;;41.10;15.43;;;0.90;99.90;;;;;;4976768;28;20554;-88
2021/12/07 09:16:06;;;;;;;48.43;17.07;;;0.60;99.90;;;;;;4976586;28;20046;-88
2021/12/07 09:18:32;;;;;;;48.27;15.93;;;0.70;99.90;;;;;;4975673;28;20530;-88
2021/12/07 09:20:59;;;;;;;42.10;14.77;;;0.70;99.90;;;;;;4976379;28;20043;-87
2021/12/07 09:23:25;;;;;;;43.37;16.13;;;0.60;99.90;;;;;;4975501;28;20509;-88
2021/12/07 09:25:51;;;;;;;44.00;15.87;;;0.80;99.90;;;;;;4967764;28;20042;-89
2021/12/07 09:28:16;;;;;;;39.80;14.93;;;1.80;99.90;;;;;;4973830;28;20137;-89
2021/12/07 09:30:42;;;;;;;39.27;14.90;;;0.90;99.90;;;;;;4978454;28;20082;-89
2021/12/07 09:33:08;;;;;;;40.33;15.00;;;;;;;;;;4976330;28;20043;-89
2021/12/07 09:35:35;;;;;;;40.07;15.30;;;1.20;99.90;;;;;;4974018;28;20046;-88
2021/12/07 09:38:02;;;;;;;39.33;15.13;;;1.00;99.90;;;;;;4973006;28;20066;-89
2021/12/07 09:40:28;;;;;;;39.80;16.70;;;1.20;99.90;;;;;;4980448;28;20054;-94
2021/12/07 09:42:56;;;;;;;40.70;16.30;;;2.30;99.90;;;;;;4973677;28;20495;-88
2021/12/07 09:45:22;;;;;;;39.63;16.67;;;1.30;99.90;;;;;;4972842;28;20057;-88
2021/12/07 09:47:48;;;;;;;40.77;14.83;;;1.50;99.90;;;;;;4972641;28;20101;-88
2021/12/07 09:50:18;;;;;;;37.67;14.10;;;1.50;99.90;;;;;;4973230;28;20043;-88
2021/12/07 09:52:45;;;;;;;32.87;13.00;;;1.50;99.90;;;;;;4972239;28;20047;-88
2021/12/07 09:55:12;;;;;;;36.57;13.37;;;1.90;99.90;;;;;;4973187;28;20376;-87
2021/12/07 09:57:38;;;;;;;34.93;13.10;;;1.50;99.90;;;;;;4973839;28;20081;-88
2021/12/07 10:00:12;;;;;;;32.03;12.53;;;2.50;99.90;;;;;;4972096;28;20386;-87
2021/12/07 10:02:38;;;;;;;28.75;12.13;;;1.70;99.90;;;;;;4969871;28;20545;-87
2021/12/07 10:05:06;;;;;;;30.67;12.60;;;1.60;99.90;;;;;;4975544;28;20479;-87
2021/12/07 10:07:33;;;;;;;29.40;12.80;;;1.90;99.90;;;;;;4969676;28;20058;-87
2021/12/07 10:09:59;;;;;;;26.97;12.33;;;2.20;99.90;;;;;;4964804;28;20047;-87
2021/12/07 10:12:27;;;;;;;27.50;12.13;;;1.90;99.90;;;;;;4967024;28;20053;-86
2021/12/07 10:14:52;;;;;;;30.30;11.80;;;2.00;99.90;;;;;;4967096;28;20077;-87
2021/12/07 10:17:22;;;;;;;25.53;10.83;;;2.90;99.90;;;;;;4980039;28;20082;-86
2021/12/07 10:19:49;;;;;;;27.30;11.67;;;2.00;99.90;;;;;;4968311;28;20420;-87
2021/12/07 10:22:19;;;;;;;31.73;12.20;;;2.10;99.90;;;;;;4990611;28;20378;-87
2021/12/07 10:24:49;;;;;;;24.23;11.57;;;2.30;99.90;;;;;;4975993;28;20130;-87
2021/12/07 10:27:34;;;;;;;26.93;11.73;;;3.70;99.90;;;;;;4975605;28;20053;-88
2021/12/07 10:30:07;;;;;;;26.07;10.93;;;3.90;99.90;;;;;;4976543;28;20557;-87
2021/12/07 10:32:37;;;;;;;29.77;10.48;;;2.80;99.90;;;;;;4976185;28;20047;-87
2021/12/07 10:35:04;;;;;;;24.50;10.30;;;3.60;99.90;;;;;;4976176;28;20106;-87
2021/12/07 10:37:30;;;;;;;22.03;10.27;;;3.00;99.90;;;;;;4975188;28;20047;-86
2021/12/07 10:39:56;;;;;;;23.23;9.77;;;3.10;99.90;;;;;;4976374;28;20085;-86
2021/12/07 10:42:28;;;;;;;21.07;8.37;;;2.90;99.90;;;;;;4976217;28;20046;-85
2021/12/07 10:44:54;;;;;;;21.93;9.07;;;3.20;99.90;;;;;;4976623;28;20038;-84
2021/12/07 10:47:21;;;;;;;20.67;8.60;;;3.20;99.90;;;;;;4974820;28;20381;-87
2021/12/07 10:49:53;;;;;;;21.83;9.00;;;3.30;99.90;;;;;;4974391;28;20050;-87
2021/12/07 10:52:26;;;;;;;20.80;8.53;;;3.30;99.90;;;;;;4975619;28;20054;-86
2021/12/07 10:55:06;;;;;;;19.88;8.13;;;3.50;99.90;;;;;;4975294;28;20153;-86
2021/12/07 10:57:42;;;;;;;19.10;8.23;;;3.50;99.90;;;;;;4975687;28;20043;-85
2021/12/07 11:00:16;;;;;;;24.13;7.90;;;3.50;99.90;;;;;;4976112;28;20647;-89
2021/12/07 11:02:45;;;;;;;18.37;7.63;;;3.60;99.90;;;;;;4973557;28;20141;-86
2021/12/07 11:05:20;;;;;;;18.23;7.57;;;3.60;99.90;;;;;;4975539;28;20058;-86
2021/12/07 11:07:46;;;;;;;20.40;8.07;;;3.60;99.90;;;;;;4974629;28;20047;-88
2021/12/07 11:10:17;;;;;;;22.30;8.70;;;3.60;99.90;;;;;;4975215;28;20050;-87
2021/12/07 11:13:11;;;;;;;24.20;8.10;;;3.60;99.90;;;;;;4974947;28;20053;-86
2021/12/07 11:15:54;;;;;;;21.55;8.70;;;4.70;99.90;;;;;;4975002;28;20059;-86
2021/12/07 11:18:38;;;;;;;24.80;8.70;;;3.70;99.90;;;;;;4974231;28;20121;-86
2021/12/07 11:21:06;;;;;;;18.23;7.68;;;4.70;99.90;;;;;;4974608;28;20109;-86
2021/12/07 11:23:35;;;;;;;20.47;8.53;;;4.00;99.90;;;;;;4975768;28;20404;-86
2021/12/07 11:31:39;;;;;;;17.83;8.03;;;3.90;99.90;;;;;;4966533;28;20051;-87
2021/12/07 11:34:31;;;;;;;20.90;8.20;;;4.00;99.90;;;;;;4966202;28;20104;-87
2021/12/07 11:37:03;;;;;;;21.63;8.30;;;3.80;99.90;;;;;;4946254;29;20051;-88
2021/12/07 11:39:36;;;;;;;22.30;7.67;;;4.00;99.90;;;;;;4977936;28;20046;-87
2021/12/07 11:42:13;;;;;;;20.30;8.93;;;4.20;99.90;;;;;;4960549;28;20055;-89
2021/12/07 11:45:08;;;;;;;18.20;8.80;;;4.10;99.90;;;;;;4960366;28;20090;-87
2021/12/07 11:47:49;;;;;;;20.77;8.27;;;4.20;99.90;;;;;;4959689;29;20511;-88
2021/12/07 11:50:37;;;;;;;18.83;8.30;;;4.00;99.90;;;;;;4955558;29;20070;-87
2021/12/07 11:53:10;;;;;;;20.27;8.50;;;3.90;99.90;;;;;;4953905;29;20381;-88
2021/12/07 11:55:37;;;;;;;22.87;8.77;;;4.10;99.90;;;;;;4955213;29;20567;-87
2021/12/07 11:58:07;;;;;;;22.17;8.63;;;3.60;99.90;;;;;;4953663;29;20500;-84
2021/12/07 12:00:37;;;;;;;19.33;8.23;;;3.70;99.90;;;;;;4954534;29;20170;-86
2021/12/07 12:03:10;;;;;;;22.50;9.00;;;3.90;99.90;;;;;;4954554;29;20773;-89
2021/12/07 12:05:39;;;;;;;19.77;8.38;;;4.00;99.90;;;;;;4954481;29;20051;-89
2021/12/07 12:08:09;;;;;;;22.53;8.53;;;4.80;99.90;;;;;;4958580;28;20074;-88
2021/12/07 12:11:06;;;;;;;18.83;8.27;;;4.00;99.90;;;;;;4963607;28;20050;-89
2021/12/07 12:13:49;;;;;;;22.43;8.40;;;5.20;99.90;;;;;;4966338;28;20511;-88
2021/12/07 12:17:00;;;;;;;20.55;8.07;;;4.00;99.90;;;;;;4969021;28;20047;-86
2021/12/07 12:19:54;;;;;;;22.10;8.93;;;4.30;99.90;;;;;;4964366;28;20822;-86
2021/12/07 12:22:40;;;;;;;22.77;8.07;;;4.30;99.90;;;;;;4964858;28;20122;-86
2021/12/07 12:25:12;;;;;;;20.90;8.97;;;4.40;99.90;;;;;;4966007;28;20070;-87
2021/12/07 12:27:39;;;;;;;21.73;8.57;;;4.50;99.90;;;;;;4962897;28;20073;-90
2021/12/07 12:30:26;;;;;;;21.17;8.30;;;4.70;99.90;;;;;;4964155;28;20139;-89
2021/12/07 12:33:11;;;;;;;17.37;7.60;;;4.90;99.90;;;;;;4967357;28;20043;-90
2021/12/07 12:35:42;;;;;;;18.67;7.53;;;5.00;99.90;;;;;;4965021;28;20399;-91
2021/12/07 12:38:34;;;;;;;19.33;7.20;;;5.20;99.90;;;;;;4971739;28;20050;-90
2021/12/07 12:41:02;;;;;;;18.57;6.77;;;5.20;99.90;;;;;;4946142;28;20051;-88
2021/12/07 12:43:51;;;;;;;17.30;7.33;;;5.20;99.90;;;;;;4965873;28;20047;-91
2021/12/07 12:46:30;;;;;;;18.40;7.33;;;5.30;99.90;;;;;;4968206;28;20059;-92
2021/12/07 12:49:06;;;;;;;17.57;7.00;;;5.30;99.90;;;;;;4969984;28;20077;-93
2021/12/07 12:51:46;;;;;;;17.47;7.13;;;5.20;99.90;;;;;;4975032;28;20047;-87
2021/12/07 12:54:12;;;;;;;18.03;7.70;;;5.10;99.90;;;;;;4973582;28;20495;-85
2021/12/07 12:56:41;;;;;;;23.80;8.57;;;5.00;99.90;;;;;;4973961;28;20047;-87
2021/12/07 12:59:35;;;;;;;21.93;8.27;;;4.90;99.90;;;;;;4974480;28;20055;-91
2021/12/07 13:02:01;;;;;;;20.00;7.57;;;5.00;99.90;;;;;;4938496;28;20055;-89
2021/12/07 13:04:30;;;;;;;21.13;8.10;;;6.20;99.90;;;;;;4973882;28;20515;-88
2021/12/07 13:07:04;;;;;;;25.20;8.57;;;5.20;99.90;;;;;;4970012;28;20053;-90
2021/12/07 13:09:33;;;;;;;22.57;8.93;;;4.80;99.90;;;;;;4962540;28;20395;-88
2021/12/07 13:12:09;;;;;;;23.20;8.87;;;4.90;99.90;;;;;;4970450;28;20054;-90
2021/12/07 13:14:51;;;;;;;23.73;8.87;;;4.80;99.90;;;;;;4973324;28;20054;-88
2021/12/07 13:17:19;;;;;;;21.50;9.23;;;4.80;99.90;;;;;;4974109;28;20046;-88
2021/12/07 13:20:09;;;;;;;19.00;8.97;;;4.80;99.90;;;;;;4979852;28;20038;-89
2021/12/07 13:22:56;;;;;;;28.40;10.27;;;4.80;99.90;;;;;;4972685;28;20054;-88
2021/12/07 13:25:27;;;;;;;26.20;10.50;;;4.70;99.90;;;;;;4973504;28;20133;-87
2021/12/07 13:28:21;;;;;;;18.33;8.83;;;4.70;99.90;;;;;;4976181;28;20047;-87
2021/12/07 13:30:56;;;;;;;27.27;10.73;;;4.80;99.90;;;;;;4972405;28;20145;-86
2021/12/07 13:33:39;;;;;;;24.47;10.13;;;4.80;99.90;;;;;;4972754;28;20117;-88
2021/12/07 13:36:26;;;;;;;18.40;9.00;;;4.80;99.90;;;;;;4973004;28;20042;-89
2021/12/07 13:38:52;;;;;;;21.10;10.70;;;4.80;99.90;;;;;;4975474;28;20051;-88
2021/12/07 13:41:20;;;;;;;23.07;10.37;;;4.80;99.90;;;;;;4977328;28;20049;-88
2021/12/07 13:43:50;;;;;;;24.13;10.50;;;4.80;99.90;;;;;;4976246;28;20058;-88
2021/12/07 13:46:21;;;;;;;21.07;11.37;;;4.70;99.90;;;;;;4976969;28;20049;-88
2021/12/07 13:48:51;;;;;;;20.07;10.70;;;4.70;99.90;;;;;;4976726;28;20133;-87
2021/12/07 13:51:19;;;;;;;24.00;10.87;;;4.60;99.90;;;;;;4976333;28;20508;-88
2021/12/07 13:53:45;;;;;;;21.13;11.70;;;4.50;99.90;;;;;;4976546;28;20054;-88
2021/12/07 13:56:12;;;;;;;22.10;9.77;;;4.50;99.90;;;;;;4977277;28;20092;-87
2021/12/07 13:59:04;;;;;;;22.17;10.90;;;4.40;99.90;;;;;;4976072;28;20070;-88
2021/12/07 14:01:32;;;;;;;23.77;10.90;;;4.40;99.90;;;;;;4977003;28;20054;-88
2021/12/07 14:03:58;;;;;;;22.63;10.83;;;4.30;99.90;;;;;;4976353;28;20089;-88
2021/12/07 14:06:25;;;;;;;29.70;11.40;;;4.30;99.90;;;;;;4976704;28;20510;-88
2021/12/07 14:08:51;;;;;;;25.27;10.43;;;4.30;99.90;;;;;;4976487;28;20050;-88
2021/12/07 14:11:18;;;;;;;27.53;10.80;;;4.20;99.90;;;;;;4976875;28;20142;-88
2021/12/07 14:13:47;;;;;;;22.83;10.33;;;5.50;99.90;;;;;;4976917;28;20042;-88
2021/12/07 14:16:15;;;;;;;22.27;10.30;;;4.10;99.90;;;;;;4976274;28;20110;-87
2021/12/07 14:18:45;;;;;;;24.20;10.83;;;4.00;99.90;;;;;;4975290;28;20133;-86
2021/12/07 14:21:12;;;;;;;23.13;11.07;;;4.00;99.90;;;;;;4976115;28;20047;-86
2021/12/07 14:23:39;;;;;;;26.20;11.33;;;3.90;99.90;;;;;;4977238;28;20053;-88
2021/12/07 14:26:11;;;;;;;25.20;10.90;;;3.90;99.90;;;;;;4975099;28;20053;-86
2021/12/07 14:28:51;;;;;;;21.87;11.03;;;3.90;99.90;;;;;;4975899;28;20050;-86
2021/12/07 14:31:26;;;;;;;25.97;12.00;;;3.90;99.90;;;;;;4975703;28;20058;-87
2021/12/07 14:33:54;;;;;;;31.13;13.20;;;3.80;99.90;;;;;;4974418;28;20054;-85